Portada
METAR-TAF:

METAR-TAF

Aeroports :

Guaymas, Mèxic

latitud: 27-58N, longitud: 110-56W, altitud: 27 m

Observació

L'informe es va fer fa 40 minuts, a les 00:54 UTC
Vent 12 kt del Sud-Oest
Temperatura 26°C
Humitat 42%
Pressió 1010 hPa
Visibilitat: 16.1 km
Cel clar

METAR: MMGM 270054Z 23012KT 10SM SKC 26/12 A2982

Hora: 18:34 (01:34 UTC)

Pronòstic

L'informe es va fer fa 8 hores i 37 minuts, a les 16:57 UTC
Pronòstic vàlid del 26 a les 18 UTC al 27 a les 18 UTC
Vent 10 kt del Sud
Visibilitat: 10 km
Cel clar
A partir de les 26 a les 2100 UTC
Vent 15 kt del Oest/Sud-Oest
Visibilitat: 10 km
Cel clar
A partir de les 27 a les 0200 UTC
Vent 10 kt del Oest/Nord-Oest
Visibilitat: 10 km
Cel clar

TAF: MMGM 261657Z 2618/2718 18010KT P6SM SKC FM262100 24015KT P6SM SKC FM270200 30010KT P6SM SKC

Observacions i pronòstics meteorològics de més de 4000 aeroports (METAR i TAF).

Les estacions disponibles són els punts grocs i vermells al mapa.

Posi el ratolí al punt desitjat per veure el nom de l'estació.

Feu clic per veure les observacions i els pronòstics meteorològics.

Per canviar el mapa: feu clic els botons verds amb una creu de color negre per apropar; al botó verd amb un guió per allunyar la imatge; o en les fletxes verdes per a mapes adjacents.


METAR-TAF: